sensor_id;sensor_type;location;lat;lon;timestamp;P1;durP1;ratioP1;P2;durP2;ratioP2
39188;SDS011;24915;50.858;4.376;2023-08-07T00:00:39;10.32;;;3.28;;
39188;SDS011;24915;50.858;4.376;2023-08-07T00:03:05;10.43;;;3.60;;
39188;SDS011;24915;50.858;4.376;2023-08-07T00:05:30;16.52;;;3.72;;
39188;SDS011;24915;50.858;4.376;2023-08-07T00:07:56;13.75;;;3.67;;
39188;SDS011;24915;50.858;4.376;2023-08-07T00:10:22;11.25;;;3.50;;
39188;SDS011;24915;50.858;4.376;2023-08-07T00:12:48;12.18;;;3.25;;
39188;SDS011;24915;50.858;4.376;2023-08-07T00:15:13;14.38;;;3.40;;
39188;SDS011;24915;50.858;4.376;2023-08-07T00:17:39;9.68;;;2.72;;
39188;SDS011;24915;50.858;4.376;2023-08-07T00:20:06;12.38;;;3.22;;
39188;SDS011;24915;50.858;4.376;2023-08-07T00:22:32;9.68;;;3.10;;
39188;SDS011;24915;50.858;4.376;2023-08-07T00:24:58;7.75;;;2.78;;
39188;SDS011;24915;50.858;4.376;2023-08-07T00:27:24;13.23;;;3.42;;
39188;SDS011;24915;50.858;4.376;2023-08-07T00:29:49;8.68;;;3.42;;
39188;SDS011;24915;50.858;4.376;2023-08-07T00:32:15;13.02;;;3.85;;
39188;SDS011;24915;50.858;4.376;2023-08-07T00:34:41;10.13;;;2.97;;
39188;SDS011;24915;50.858;4.376;2023-08-07T00:37:06;9.88;;;2.95;;
39188;SDS011;24915;50.858;4.376;2023-08-07T00:39:32;13.38;;;3.17;;
39188;SDS011;24915;50.858;4.376;2023-08-07T00:41:57;13.05;;;3.60;;
39188;SDS011;24915;50.858;4.376;2023-08-07T00:44:23;10.18;;;3.95;;
39188;SDS011;24915;50.858;4.376;2023-08-07T00:46:49;12.50;;;3.20;;
39188;SDS011;24915;50.858;4.376;2023-08-07T00:49:15;13.07;;;3.50;;
39188;SDS011;24915;50.858;4.376;2023-08-07T00:51:43;10.48;;;3.10;;
39188;SDS011;24915;50.858;4.376;2023-08-07T00:54:09;8.23;;;2.92;;
39188;SDS011;24915;50.858;4.376;2023-08-07T00:56:36;8.73;;;3.63;;
39188;SDS011;24915;50.858;4.376;2023-08-07T00:59:04;7.38;;;3.58;;
39188;SDS011;24915;50.858;4.376;2023-08-07T01:01:29;13.50;;;3.33;;
39188;SDS011;24915;50.858;4.376;2023-08-07T01:03:55;8.32;;;3.13;;
39188;SDS011;24915;50.858;4.376;2023-08-07T01:06:21;8.65;;;2.78;;
39188;SDS011;24915;50.858;4.376;2023-08-07T01:08:47;10.70;;;3.45;;
39188;SDS011;24915;50.858;4.376;2023-08-07T01:13:57;6.50;;;3.28;;
39188;SDS011;24915;50.858;4.376;2023-08-07T01:19:13;5.93;;;2.63;;
39188;SDS011;24915;50.858;4.376;2023-08-07T01:21:49;14.57;;;3.00;;
39188;SDS011;24915;50.858;4.376;2023-08-07T01:24:28;11.23;;;3.03;;
39188;SDS011;24915;50.858;4.376;2023-08-07T01:26:54;8.82;;;2.70;;
39188;SDS011;24915;50.858;4.376;2023-08-07T01:29:31;9.10;;;3.10;;
39188;SDS011;24915;50.858;4.376;2023-08-07T01:32:03;7.70;;;2.50;;
39188;SDS011;24915;50.858;4.376;2023-08-07T01:34:30;13.10;;;2.90;;
39188;SDS011;24915;50.858;4.376;2023-08-07T01:36:57;9.98;;;2.60;;
39188;SDS011;24915;50.858;4.376;2023-08-07T01:39:25;7.07;;;3.47;;
39188;SDS011;24915;50.858;4.376;2023-08-07T01:41:51;10.13;;;3.22;;
39188;SDS011;24915;50.858;4.376;2023-08-07T01:44:17;8.57;;;3.05;;
39188;SDS011;24915;50.858;4.376;2023-08-07T01:46:43;8.68;;;2.92;;
39188;SDS011;24915;50.858;4.376;2023-08-07T01:49:08;13.30;;;3.17;;
39188;SDS011;24915;50.858;4.376;2023-08-07T01:51:34;4.85;;;2.50;;
39188;SDS011;24915;50.858;4.376;2023-08-07T01:53:59;10.27;;;2.78;;
39188;SDS011;24915;50.858;4.376;2023-08-07T01:56:25;6.10;;;2.85;;
39188;SDS011;24915;50.858;4.376;2023-08-07T01:58:51;6.93;;;2.78;;
39188;SDS011;24915;50.858;4.376;2023-08-07T02:01:16;7.90;;;2.88;;
39188;SDS011;24915;50.858;4.376;2023-08-07T02:03:42;6.82;;;2.90;;
39188;SDS011;24915;50.858;4.376;2023-08-07T02:06:08;8.50;;;2.65;;
39188;SDS011;24915;50.858;4.376;2023-08-07T02:08:33;13.43;;;3.42;;
39188;SDS011;24915;50.858;4.376;2023-08-07T02:10:59;6.93;;;3.10;;
39188;SDS011;24915;50.858;4.376;2023-08-07T02:13:26;7.40;;;2.53;;
39188;SDS011;24915;50.858;4.376;2023-08-07T02:15:52;8.40;;;2.70;;
39188;SDS011;24915;50.858;4.376;2023-08-07T02:18:17;8.85;;;2.63;;
39188;SDS011;24915;50.858;4.376;2023-08-07T02:20:43;8.77;;;2.40;;
39188;SDS011;24915;50.858;4.376;2023-08-07T02:23:11;7.28;;;2.28;;
39188;SDS011;24915;50.858;4.376;2023-08-07T02:25:36;8.77;;;2.35;;
39188;SDS011;24915;50.858;4.376;2023-08-07T02:28:02;11.15;;;2.47;;
39188;SDS011;24915;50.858;4.376;2023-08-07T02:30:28;12.23;;;3.33;;
39188;SDS011;24915;50.858;4.376;2023-08-07T02:32:55;7.03;;;2.90;;
39188;SDS011;24915;50.858;4.376;2023-08-07T02:35:21;13.55;;;2.90;;
39188;SDS011;24915;50.858;4.376;2023-08-07T02:37:47;14.60;;;2.70;;
39188;SDS011;24915;50.858;4.376;2023-08-07T02:40:12;10.52;;;2.70;;
39188;SDS011;24915;50.858;4.376;2023-08-07T02:42:40;8.82;;;2.50;;
39188;SDS011;24915;50.858;4.376;2023-08-07T02:45:07;11.50;;;2.75;;
39188;SDS011;24915;50.858;4.376;2023-08-07T02:47:33;13.73;;;2.55;;
39188;SDS011;24915;50.858;4.376;2023-08-07T02:49:58;4.13;;;2.25;;
39188;SDS011;24915;50.858;4.376;2023-08-07T02:52:24;8.15;;;2.45;;
39188;SDS011;24915;50.858;4.376;2023-08-07T02:54:50;8.82;;;2.53;;
39188;SDS011;24915;50.858;4.376;2023-08-07T02:57:16;6.68;;;2.53;;
39188;SDS011;24915;50.858;4.376;2023-08-07T02:59:41;7.30;;;3.10;;
39188;SDS011;24915;50.858;4.376;2023-08-07T03:02:07;6.32;;;2.75;;
39188;SDS011;24915;50.858;4.376;2023-08-07T03:04:33;5.35;;;2.88;;
39188;SDS011;24915;50.858;4.376;2023-08-07T03:06:59;7.18;;;2.92;;
39188;SDS011;24915;50.858;4.376;2023-08-07T03:09:25;8.30;;;3.75;;
39188;SDS011;24915;50.858;4.376;2023-08-07T03:11:50;11.05;;;2.97;;
39188;SDS011;24915;50.858;4.376;2023-08-07T03:14:16;9.77;;;2.83;;
39188;SDS011;24915;50.858;4.376;2023-08-07T03:16:42;8.75;;;3.03;;
39188;SDS011;24915;50.858;4.376;2023-08-07T03:19:07;11.23;;;2.53;;
39188;SDS011;24915;50.858;4.376;2023-08-07T03:21:33;13.25;;;2.72;;
39188;SDS011;24915;50.858;4.376;2023-08-07T03:23:59;6.20;;;3.03;;
39188;SDS011;24915;50.858;4.376;2023-08-07T03:26:25;12.77;;;2.22;;
39188;SDS011;24915;50.858;4.376;2023-08-07T03:28:51;10.55;;;2.97;;
39188;SDS011;24915;50.858;4.376;2023-08-07T03:31:17;7.55;;;2.47;;
39188;SDS011;24915;50.858;4.376;2023-08-07T03:33:42;5.75;;;2.90;;
39188;SDS011;24915;50.858;4.376;2023-08-07T03:36:08;12.13;;;2.58;;
39188;SDS011;24915;50.858;4.376;2023-08-07T03:38:34;9.15;;;2.83;;
39188;SDS011;24915;50.858;4.376;2023-08-07T03:40:59;12.52;;;3.13;;
39188;SDS011;24915;50.858;4.376;2023-08-07T03:43:25;8.95;;;3.00;;
39188;SDS011;24915;50.858;4.376;2023-08-07T03:45:57;7.53;;;2.67;;
39188;SDS011;24915;50.858;4.376;2023-08-07T03:48:23;9.85;;;3.05;;
39188;SDS011;24915;50.858;4.376;2023-08-07T03:50:48;8.18;;;3.38;;
39188;SDS011;24915;50.858;4.376;2023-08-07T03:53:14;5.25;;;2.58;;
39188;SDS011;24915;50.858;4.376;2023-08-07T03:55:40;12.00;;;2.92;;
39188;SDS011;24915;50.858;4.376;2023-08-07T03:58:07;6.90;;;2.47;;
39188;SDS011;24915;50.858;4.376;2023-08-07T04:00:32;12.02;;;3.00;;
39188;SDS011;24915;50.858;4.376;2023-08-07T04:02:58;6.82;;;2.65;;
39188;SDS011;24915;50.858;4.376;2023-08-07T04:05:24;16.73;;;2.80;;
39188;SDS011;24915;50.858;4.376;2023-08-07T04:07:49;8.68;;;2.67;;
39188;SDS011;24915;50.858;4.376;2023-08-07T04:10:15;16.15;;;3.03;;
39188;SDS011;24915;50.858;4.376;2023-08-07T04:12:41;12.27;;;2.90;;
39188;SDS011;24915;50.858;4.376;2023-08-07T04:15:07;7.85;;;3.13;;
39188;SDS011;24915;50.858;4.376;2023-08-07T04:17:34;16.63;;;2.97;;
39188;SDS011;24915;50.858;4.376;2023-08-07T04:19:59;9.00;;;3.08;;
39188;SDS011;24915;50.858;4.376;2023-08-07T04:22:25;11.05;;;3.13;;
39188;SDS011;24915;50.858;4.376;2023-08-07T04:24:51;6.90;;;2.70;;
39188;SDS011;24915;50.858;4.376;2023-08-07T04:27:16;8.75;;;3.22;;
39188;SDS011;24915;50.858;4.376;2023-08-07T04:29:42;8.45;;;2.83;;
39188;SDS011;24915;50.858;4.376;2023-08-07T04:32:08;11.02;;;3.38;;
39188;SDS011;24915;50.858;4.376;2023-08-07T04:34:34;5.70;;;3.28;;
39188;SDS011;24915;50.858;4.376;2023-08-07T04:37:00;7.15;;;2.90;;
39188;SDS011;24915;50.858;4.376;2023-08-07T04:39:26;6.90;;;3.13;;
39188;SDS011;24915;50.858;4.376;2023-08-07T04:41:51;10.60;;;2.90;;
39188;SDS011;24915;50.858;4.376;2023-08-07T04:44:17;9.50;;;3.20;;
39188;SDS011;24915;50.858;4.376;2023-08-07T04:46:43;8.00;;;3.45;;
39188;SDS011;24915;50.858;4.376;2023-08-07T04:49:08;15.02;;;3.45;;
39188;SDS011;24915;50.858;4.376;2023-08-07T04:51:34;7.22;;;2.80;;
39188;SDS011;24915;50.858;4.376;2023-08-07T04:53:59;12.68;;;3.25;;
39188;SDS011;24915;50.858;4.376;2023-08-07T04:56:25;8.23;;;3.33;;
39188;SDS011;24915;50.858;4.376;2023-08-07T04:58:51;9.63;;;3.20;;
39188;SDS011;24915;50.858;4.376;2023-08-07T05:01:16;9.48;;;3.10;;
39188;SDS011;24915;50.858;4.376;2023-08-07T05:03:43;8.82;;;2.88;;
39188;SDS011;24915;50.858;4.376;2023-08-07T05:06:09;11.57;;;3.13;;
39188;SDS011;24915;50.858;4.376;2023-08-07T05:08:34;9.00;;;3.22;;
39188;SDS011;24915;50.858;4.376;2023-08-07T05:11:00;10.07;;;2.92;;
39188;SDS011;24915;50.858;4.376;2023-08-07T05:13:26;8.02;;;3.20;;
39188;SDS011;24915;50.858;4.376;2023-08-07T05:15:51;11.70;;;3.03;;
39188;SDS011;24915;50.858;4.376;2023-08-07T05:18:17;13.70;;;2.88;;
39188;SDS011;24915;50.858;4.376;2023-08-07T05:20:43;9.48;;;2.85;;
39188;SDS011;24915;50.858;4.376;2023-08-07T05:23:08;7.07;;;2.88;;
39188;SDS011;24915;50.858;4.376;2023-08-07T05:25:36;8.63;;;3.05;;
39188;SDS011;24915;50.858;4.376;2023-08-07T05:28:02;16.08;;;3.47;;
39188;SDS011;24915;50.858;4.376;2023-08-07T05:30:28;14.00;;;3.35;;
39188;SDS011;24915;50.858;4.376;2023-08-07T05:32:53;9.35;;;2.85;;
39188;SDS011;24915;50.858;4.376;2023-08-07T05:35:19;8.68;;;3.53;;
39188;SDS011;24915;50.858;4.376;2023-08-07T05:37:45;9.65;;;3.08;;
39188;SDS011;24915;50.858;4.376;2023-08-07T05:40:11;9.02;;;3.50;;
39188;SDS011;24915;50.858;4.376;2023-08-07T05:42:37;8.57;;;3.05;;
39188;SDS011;24915;50.858;4.376;2023-08-07T05:45:03;7.88;;;3.15;;
39188;SDS011;24915;50.858;4.376;2023-08-07T05:47:29;10.05;;;3.38;;
39188;SDS011;24915;50.858;4.376;2023-08-07T05:49:55;6.65;;;3.35;;
39188;SDS011;24915;50.858;4.376;2023-08-07T05:52:20;10.32;;;3.30;;
39188;SDS011;24915;50.858;4.376;2023-08-07T05:54:46;11.27;;;3.65;;
39188;SDS011;24915;50.858;4.376;2023-08-07T05:57:12;11.20;;;3.00;;
39188;SDS011;24915;50.858;4.376;2023-08-07T05:59:38;6.68;;;3.05;;
39188;SDS011;24915;50.858;4.376;2023-08-07T06:02:05;10.85;;;3.42;;
39188;SDS011;24915;50.858;4.376;2023-08-07T06:04:31;5.40;;;3.00;;
39188;SDS011;24915;50.858;4.376;2023-08-07T06:06:57;9.55;;;3.50;;
39188;SDS011;24915;50.858;4.376;2023-08-07T06:09:22;11.73;;;3.00;;
39188;SDS011;24915;50.858;4.376;2023-08-07T06:11:48;6.57;;;3.20;;
39188;SDS011;24915;50.858;4.376;2023-08-07T06:14:14;8.25;;;3.00;;
39188;SDS011;24915;50.858;4.376;2023-08-07T06:16:39;10.98;;;3.00;;
39188;SDS011;24915;50.858;4.376;2023-08-07T06:19:05;11.27;;;3.75;;
39188;SDS011;24915;50.858;4.376;2023-08-07T06:21:31;8.82;;;3.13;;
39188;SDS011;24915;50.858;4.376;2023-08-07T06:23:56;9.77;;;2.97;;
39188;SDS011;24915;50.858;4.376;2023-08-07T06:26:22;9.95;;;3.58;;
39188;SDS011;24915;50.858;4.376;2023-08-07T06:28:48;10.93;;;3.47;;
39188;SDS011;24915;50.858;4.376;2023-08-07T06:31:15;6.70;;;3.30;;
39188;SDS011;24915;50.858;4.376;2023-08-07T06:33:41;8.48;;;3.03;;
39188;SDS011;24915;50.858;4.376;2023-08-07T06:36:06;12.25;;;3.10;;
39188;SDS011;24915;50.858;4.376;2023-08-07T06:38:36;11.23;;;3.20;;
39188;SDS011;24915;50.858;4.376;2023-08-07T06:41:01;6.22;;;2.80;;
39188;SDS011;24915;50.858;4.376;2023-08-07T06:43:28;9.95;;;3.00;;
39188;SDS011;24915;50.858;4.376;2023-08-07T06:45:54;8.45;;;3.55;;
39188;SDS011;24915;50.858;4.376;2023-08-07T06:48:20;9.00;;;2.90;;
39188;SDS011;24915;50.858;4.376;2023-08-07T06:50:46;12.05;;;3.50;;
39188;SDS011;24915;50.858;4.376;2023-08-07T06:53:13;10.75;;;3.13;;
39188;SDS011;24915;50.858;4.376;2023-08-07T06:55:38;8.20;;;2.90;;
39188;SDS011;24915;50.858;4.376;2023-08-07T06:58:06;8.38;;;3.08;;
39188;SDS011;24915;50.858;4.376;2023-08-07T07:00:31;10.98;;;3.05;;
39188;SDS011;24915;50.858;4.376;2023-08-07T07:02:59;8.70;;;3.45;;
39188;SDS011;24915;50.858;4.376;2023-08-07T07:05:24;11.88;;;4.78;;
39188;SDS011;24915;50.858;4.376;2023-08-07T07:07:50;18.27;;;3.25;;
39188;SDS011;24915;50.858;4.376;2023-08-07T07:10:15;13.93;;;3.47;;
39188;SDS011;24915;50.858;4.376;2023-08-07T07:12:41;9.98;;;3.30;;
39188;SDS011;24915;50.858;4.376;2023-08-07T07:15:07;11.48;;;3.47;;
39188;SDS011;24915;50.858;4.376;2023-08-07T07:17:34;8.93;;;2.60;;
39188;SDS011;24915;50.858;4.376;2023-08-07T07:19:59;14.85;;;3.13;;
39188;SDS011;24915;50.858;4.376;2023-08-07T07:22:25;7.70;;;2.88;;
39188;SDS011;24915;50.858;4.376;2023-08-07T07:24:51;7.07;;;3.17;;
39188;SDS011;24915;50.858;4.376;2023-08-07T07:27:16;8.93;;;2.75;;
39188;SDS011;24915;50.858;4.376;2023-08-07T07:29:42;7.47;;;3.13;;
39188;SDS011;24915;50.858;4.376;2023-08-07T07:32:08;6.75;;;2.95;;
39188;SDS011;24915;50.858;4.376;2023-08-07T07:34:33;12.30;;;3.00;;
39188;SDS011;24915;50.858;4.376;2023-08-07T07:36:59;7.90;;;3.35;;
39188;SDS011;24915;50.858;4.376;2023-08-07T07:39:25;6.75;;;3.10;;
39188;SDS011;24915;50.858;4.376;2023-08-07T07:41:50;6.55;;;2.58;;
39188;SDS011;24915;50.858;4.376;2023-08-07T07:44:16;9.30;;;3.10;;
39188;SDS011;24915;50.858;4.376;2023-08-07T07:46:42;13.35;;;3.88;;
39188;SDS011;24915;50.858;4.376;2023-08-07T07:49:07;9.45;;;3.33;;
39188;SDS011;24915;50.858;4.376;2023-08-07T07:51:33;5.88;;;2.60;;
39188;SDS011;24915;50.858;4.376;2023-08-07T07:54:00;8.48;;;2.70;;
39188;SDS011;24915;50.858;4.376;2023-08-07T07:56:26;6.70;;;3.33;;
39188;SDS011;24915;50.858;4.376;2023-08-07T07:58:51;7.63;;;2.70;;
39188;SDS011;24915;50.858;4.376;2023-08-07T08:01:17;7.13;;;2.38;;
39188;SDS011;24915;50.858;4.376;2023-08-07T08:03:43;9.02;;;3.08;;
39188;SDS011;24915;50.858;4.376;2023-08-07T08:06:10;5.57;;;2.47;;
39188;SDS011;24915;50.858;4.376;2023-08-07T08:08:37;5.43;;;2.47;;
39188;SDS011;24915;50.858;4.376;2023-08-07T08:11:03;8.18;;;2.40;;
39188;SDS011;24915;50.858;4.376;2023-08-07T08:13:29;5.78;;;2.63;;
39188;SDS011;24915;50.858;4.376;2023-08-07T08:15:54;8.77;;;2.35;;
39188;SDS011;24915;50.858;4.376;2023-08-07T08:18:20;7.88;;;2.00;;
39188;SDS011;24915;50.858;4.376;2023-08-07T08:20:46;6.40;;;2.30;;
39188;SDS011;24915;50.858;4.376;2023-08-07T08:23:12;10.55;;;2.30;;
39188;SDS011;24915;50.858;4.376;2023-08-07T08:25:37;9.20;;;2.75;;
39188;SDS011;24915;50.858;4.376;2023-08-07T08:28:03;16.02;;;2.35;;
39188;SDS011;24915;50.858;4.376;2023-08-07T08:30:29;5.82;;;2.17;;
39188;SDS011;24915;50.858;4.376;2023-08-07T08:32:55;6.57;;;2.42;;
39188;SDS011;24915;50.858;4.376;2023-08-07T08:35:20;6.65;;;2.50;;
39188;SDS011;24915;50.858;4.376;2023-08-07T08:37:46;8.77;;;2.20;;
39188;SDS011;24915;50.858;4.376;2023-08-07T08:40:12;4.25;;;1.88;;
39188;SDS011;24915;50.858;4.376;2023-08-07T08:42:42;8.07;;;1.90;;
39188;SDS011;24915;50.858;4.376;2023-08-07T08:45:10;6.32;;;2.00;;
39188;SDS011;24915;50.858;4.376;2023-08-07T08:47:39;11.55;;;1.98;;
39188;SDS011;24915;50.858;4.376;2023-08-07T08:50:10;3.65;;;2.28;;
39188;SDS011;24915;50.858;4.376;2023-08-07T08:52:40;4.63;;;2.30;;
39188;SDS011;24915;50.858;4.376;2023-08-07T08:55:07;5.72;;;2.22;;
39188;SDS011;24915;50.858;4.376;2023-08-07T08:57:34;6.75;;;2.38;;
39188;SDS011;24915;50.858;4.376;2023-08-07T09:00:02;10.13;;;2.30;;
39188;SDS011;24915;50.858;4.376;2023-08-07T09:02:35;13.15;;;2.90;;
39188;SDS011;24915;50.858;4.376;2023-08-07T09:05:02;5.25;;;2.22;;
39188;SDS011;24915;50.858;4.376;2023-08-07T09:07:27;6.13;;;2.33;;
39188;SDS011;24915;50.858;4.376;2023-08-07T09:09:54;9.70;;;2.47;;
39188;SDS011;24915;50.858;4.376;2023-08-07T09:12:23;9.20;;;2.40;;
39188;SDS011;24915;50.858;4.376;2023-08-07T09:14:56;6.35;;;2.42;;
39188;SDS011;24915;50.858;4.376;2023-08-07T09:17:33;6.03;;;2.47;;
39188;SDS011;24915;50.858;4.376;2023-08-07T09:20:01;6.15;;;2.33;;
39188;SDS011;24915;50.858;4.376;2023-08-07T09:22:29;9.65;;;2.67;;
39188;SDS011;24915;50.858;4.376;2023-08-07T09:24:55;4.15;;;2.13;;
39188;SDS011;24915;50.858;4.376;2023-08-07T09:27:21;9.35;;;2.42;;
39188;SDS011;24915;50.858;4.376;2023-08-07T09:29:47;5.30;;;2.40;;
39188;SDS011;24915;50.858;4.376;2023-08-07T09:32:13;7.40;;;2.22;;
39188;SDS011;24915;50.858;4.376;2023-08-07T09:34:39;6.65;;;1.90;;
39188;SDS011;24915;50.858;4.376;2023-08-07T09:37:09;4.78;;;2.05;;
39188;SDS011;24915;50.858;4.376;2023-08-07T09:39:35;7.40;;;2.40;;
39188;SDS011;24915;50.858;4.376;2023-08-07T09:42:04;5.15;;;2.55;;
39188;SDS011;24915;50.858;4.376;2023-08-07T09:44:37;9.45;;;2.50;;
39188;SDS011;24915;50.858;4.376;2023-08-07T09:47:24;3.97;;;1.77;;
39188;SDS011;24915;50.858;4.376;2023-08-07T09:49:49;4.25;;;2.35;;
39188;SDS011;24915;50.858;4.376;2023-08-07T09:52:20;4.25;;;2.25;;
39188;SDS011;24915;50.858;4.376;2023-08-07T09:54:45;3.00;;;1.70;;
39188;SDS011;24915;50.858;4.376;2023-08-07T09:57:11;4.32;;;1.90;;
39188;SDS011;24915;50.858;4.376;2023-08-07T09:59:38;2.42;;;1.38;;
39188;SDS011;24915;50.858;4.376;2023-08-07T10:02:05;4.80;;;1.67;;
39188;SDS011;24915;50.858;4.376;2023-08-07T10:04:31;2.45;;;1.73;;
39188;SDS011;24915;50.858;4.376;2023-08-07T10:06:57;4.28;;;2.00;;
39188;SDS011;24915;50.858;4.376;2023-08-07T10:09:23;5.50;;;1.75;;
39188;SDS011;24915;50.858;4.376;2023-08-07T10:11:51;2.65;;;1.83;;
39188;SDS011;24915;50.858;4.376;2023-08-07T10:14:17;4.50;;;2.00;;
39188;SDS011;24915;50.858;4.376;2023-08-07T10:16:43;3.88;;;1.65;;
39188;SDS011;24915;50.858;4.376;2023-08-07T10:19:11;3.33;;;1.70;;
39188;SDS011;24915;50.858;4.376;2023-08-07T10:21:38;3.47;;;2.50;;
39188;SDS011;24915;50.858;4.376;2023-08-07T10:24:07;3.17;;;1.88;;
39188;SDS011;24915;50.858;4.376;2023-08-07T10:26:35;8.52;;;2.13;;
39188;SDS011;24915;50.858;4.376;2023-08-07T10:29:04;9.93;;;2.20;;
39188;SDS011;24915;50.858;4.376;2023-08-07T10:31:32;3.38;;;1.75;;
39188;SDS011;24915;50.858;4.376;2023-08-07T10:34:00;3.92;;;1.80;;
39188;SDS011;24915;50.858;4.376;2023-08-07T10:36:33;4.70;;;2.42;;
39188;SDS011;24915;50.858;4.376;2023-08-07T10:39:09;1.95;;;1.80;;
39188;SDS011;24915;50.858;4.376;2023-08-07T10:41:46;1.90;;;1.75;;
39188;SDS011;24915;50.858;4.376;2023-08-07T10:44:19;3.15;;;2.17;;
39188;SDS011;24915;50.858;4.376;2023-08-07T10:46:47;2.67;;;2.05;;
39188;SDS011;24915;50.858;4.376;2023-08-07T10:49:47;2.25;;;1.95;;
39188;SDS011;24915;50.858;4.376;2023-08-07T10:52:09;2.85;;;1.40;;
39188;SDS011;24915;50.858;4.376;2023-08-07T10:54:46;2.95;;;1.73;;
39188;SDS011;24915;50.858;4.376;2023-08-07T10:57:15;4.07;;;2.80;;
39188;SDS011;24915;50.858;4.376;2023-08-07T10:59:48;4.15;;;2.65;;
39188;SDS011;24915;50.858;4.376;2023-08-07T11:02:29;3.85;;;2.35;;
39188;SDS011;24915;50.858;4.376;2023-08-07T11:04:55;6.13;;;2.83;;
39188;SDS011;24915;50.858;4.376;2023-08-07T11:07:28;4.65;;;2.33;;
39188;SDS011;24915;50.858;4.376;2023-08-07T11:09:55;3.78;;;2.10;;
39188;SDS011;24915;50.858;4.376;2023-08-07T11:12:24;2.55;;;2.00;;
39188;SDS011;24915;50.858;4.376;2023-08-07T11:14:51;2.28;;;1.92;;
39188;SDS011;24915;50.858;4.376;2023-08-07T11:17:18;4.70;;;1.80;;
39188;SDS011;24915;50.858;4.376;2023-08-07T11:19:46;5.13;;;2.20;;
39188;SDS011;24915;50.858;4.376;2023-08-07T11:22:14;6.43;;;2.53;;
39188;SDS011;24915;50.858;4.376;2023-08-07T11:24:41;4.60;;;1.80;;
39188;SDS011;24915;50.858;4.376;2023-08-07T11:27:07;3.97;;;2.00;;
39188;SDS011;24915;50.858;4.376;2023-08-07T11:29:33;2.78;;;1.90;;
39188;SDS011;24915;50.858;4.376;2023-08-07T11:31:59;3.47;;;1.88;;
39188;SDS011;24915;50.858;4.376;2023-08-07T11:34:25;2.33;;;1.40;;
39188;SDS011;24915;50.858;4.376;2023-08-07T11:36:51;1.85;;;1.70;;
39188;SDS011;24915;50.858;4.376;2023-08-07T11:39:16;6.57;;;2.25;;
39188;SDS011;24915;50.858;4.376;2023-08-07T11:41:44;4.68;;;2.75;;
39188;SDS011;24915;50.858;4.376;2023-08-07T11:44:10;3.80;;;1.98;;
39188;SDS011;24915;50.858;4.376;2023-08-07T11:46:36;6.38;;;2.20;;
39188;SDS011;24915;50.858;4.376;2023-08-07T11:49:02;4.68;;;1.85;;
39188;SDS011;24915;50.858;4.376;2023-08-07T11:51:29;5.75;;;2.20;;
39188;SDS011;24915;50.858;4.376;2023-08-07T11:53:55;3.10;;;2.65;;
39188;SDS011;24915;50.858;4.376;2023-08-07T11:56:24;7.13;;;2.20;;
39188;SDS011;24915;50.858;4.376;2023-08-07T11:58:50;5.55;;;2.03;;
39188;SDS011;24915;50.858;4.376;2023-08-07T12:01:18;2.05;;;1.60;;
39188;SDS011;24915;50.858;4.376;2023-08-07T12:03:56;2.92;;;1.92;;
39188;SDS011;24915;50.858;4.376;2023-08-07T12:06:22;2.30;;;1.73;;
39188;SDS011;24915;50.858;4.376;2023-08-07T12:08:49;2.13;;;1.92;;
39188;SDS011;24915;50.858;4.376;2023-08-07T12:11:19;10.05;;;3.20;;
39188;SDS011;24915;50.858;4.376;2023-08-07T12:13:46;4.85;;;2.20;;
39188;SDS011;24915;50.858;4.376;2023-08-07T12:16:13;2.10;;;1.83;;
39188;SDS011;24915;50.858;4.376;2023-08-07T12:18:44;3.83;;;1.80;;
39188;SDS011;24915;50.858;4.376;2023-08-07T12:21:15;2.53;;;1.45;;
39188;SDS011;24915;50.858;4.376;2023-08-07T12:23:44;4.22;;;2.15;;
39188;SDS011;24915;50.858;4.376;2023-08-07T12:26:10;6.05;;;1.75;;
39188;SDS011;24915;50.858;4.376;2023-08-07T12:28:35;6.40;;;2.05;;
39188;SDS011;24915;50.858;4.376;2023-08-07T12:31:02;2.08;;;1.70;;
39188;SDS011;24915;50.858;4.376;2023-08-07T12:33:28;2.60;;;1.90;;
39188;SDS011;24915;50.858;4.376;2023-08-07T12:35:54;3.58;;;3.03;;
39188;SDS011;24915;50.858;4.376;2023-08-07T12:38:21;4.53;;;2.65;;
39188;SDS011;24915;50.858;4.376;2023-08-07T12:40:47;3.47;;;1.92;;
39188;SDS011;24915;50.858;4.376;2023-08-07T12:43:13;4.15;;;1.67;;
39188;SDS011;24915;50.858;4.376;2023-08-07T12:45:38;2.42;;;1.63;;
39188;SDS011;24915;50.858;4.376;2023-08-07T12:48:04;2.15;;;1.60;;
39188;SDS011;24915;50.858;4.376;2023-08-07T12:50:30;3.90;;;1.90;;
39188;SDS011;24915;50.858;4.376;2023-08-07T12:52:56;3.20;;;1.30;;
39188;SDS011;24915;50.858;4.376;2023-08-07T12:55:21;2.10;;;1.85;;
39188;SDS011;24915;50.858;4.376;2023-08-07T12:57:47;2.35;;;1.65;;
39188;SDS011;24915;50.858;4.376;2023-08-07T13:00:14;5.22;;;1.70;;
39188;SDS011;24915;50.858;4.376;2023-08-07T13:02:44;1.95;;;1.60;;
39188;SDS011;24915;50.858;4.376;2023-08-07T13:05:12;2.42;;;1.42;;
39188;SDS011;24915;50.858;4.376;2023-08-07T13:07:38;1.48;;;1.38;;
39188;SDS011;24915;50.858;4.376;2023-08-07T13:10:04;2.88;;;1.48;;
39188;SDS011;24915;50.858;4.376;2023-08-07T13:12:35;2.75;;;1.65;;
39188;SDS011;24915;50.858;4.376;2023-08-07T13:15:02;2.58;;;1.90;;
39188;SDS011;24915;50.858;4.376;2023-08-07T13:17:30;1.55;;;1.15;;
39188;SDS011;24915;50.858;4.376;2023-08-07T13:19:56;2.17;;;1.48;;
39188;SDS011;24915;50.858;4.376;2023-08-07T13:22:22;4.95;;;1.20;;
39188;SDS011;24915;50.858;4.376;2023-08-07T13:24:48;1.23;;;1.13;;
39188;SDS011;24915;50.858;4.376;2023-08-07T13:27:13;2.90;;;1.10;;
39188;SDS011;24915;50.858;4.376;2023-08-07T13:29:39;1.92;;;1.42;;
39188;SDS011;24915;50.858;4.376;2023-08-07T13:32:05;3.97;;;2.40;;
39188;SDS011;24915;50.858;4.376;2023-08-07T13:34:35;3.03;;;1.30;;
39188;SDS011;24915;50.858;4.376;2023-08-07T13:37:04;2.60;;;1.55;;
39188;SDS011;24915;50.858;4.376;2023-08-07T13:39:30;2.75;;;1.20;;
39188;SDS011;24915;50.858;4.376;2023-08-07T13:41:56;1.98;;;1.60;;
39188;SDS011;24915;50.858;4.376;2023-08-07T13:44:22;2.15;;;1.55;;
39188;SDS011;24915;50.858;4.376;2023-08-07T13:46:48;2.50;;;1.50;;
39188;SDS011;24915;50.858;4.376;2023-08-07T13:49:14;0.80;;;0.80;;
39188;SDS011;24915;50.858;4.376;2023-08-07T13:51:40;2.92;;;1.50;;
39188;SDS011;24915;50.858;4.376;2023-08-07T13:54:06;4.75;;;2.35;;
39188;SDS011;24915;50.858;4.376;2023-08-07T13:56:35;3.20;;;1.63;;
39188;SDS011;24915;50.858;4.376;2023-08-07T13:59:01;1.77;;;1.65;;
39188;SDS011;24915;50.858;4.376;2023-08-07T14:01:27;11.27;;;1.70;;
39188;SDS011;24915;50.858;4.376;2023-08-07T14:03:56;3.28;;;2.97;;
39188;SDS011;24915;50.858;4.376;2023-08-07T14:06:21;5.63;;;4.45;;
39188;SDS011;24915;50.858;4.376;2023-08-07T14:08:47;3.58;;;2.55;;
39188;SDS011;24915;50.858;4.376;2023-08-07T14:11:13;2.30;;;1.50;;
39188;SDS011;24915;50.858;4.376;2023-08-07T14:13:40;6.63;;;2.65;;
39188;SDS011;24915;50.858;4.376;2023-08-07T14:16:06;5.25;;;1.88;;
39188;SDS011;24915;50.858;4.376;2023-08-07T14:18:32;7.13;;;2.20;;
39188;SDS011;24915;50.858;4.376;2023-08-07T14:20:59;2.88;;;1.58;;
39188;SDS011;24915;50.858;4.376;2023-08-07T14:23:24;5.47;;;1.92;;
39188;SDS011;24915;50.858;4.376;2023-08-07T14:25:50;5.47;;;1.77;;
39188;SDS011;24915;50.858;4.376;2023-08-07T14:28:18;3.85;;;2.00;;
39188;SDS011;24915;50.858;4.376;2023-08-07T14:30:43;5.57;;;4.43;;
39188;SDS011;24915;50.858;4.376;2023-08-07T14:33:09;5.55;;;2.38;;
39188;SDS011;24915;50.858;4.376;2023-08-07T14:35:35;4.50;;;2.55;;
39188;SDS011;24915;50.858;4.376;2023-08-07T14:38:01;3.30;;;2.10;;
39188;SDS011;24915;50.858;4.376;2023-08-07T14:40:27;2.33;;;1.30;;
39188;SDS011;24915;50.858;4.376;2023-08-07T14:42:53;1.90;;;1.23;;
39188;SDS011;24915;50.858;4.376;2023-08-07T14:45:22;2.15;;;1.50;;
39188;SDS011;24915;50.858;4.376;2023-08-07T14:47:49;5.22;;;1.40;;